Time;durP1;ratioP1;P1;durP2;ratioP2;P2;SDS_P1;SDS_P2;PMS_P1;PMS_P2;Temp;Humidity;BMP_temperature;BMP_pressure;BME280_temperature;BME280_humidity;BME280_pressure;Samples;Min_cycle;Max_cycle;Signal;HPM_P1;HPM_P2
2024/02/23 00:00:59;;;;;;;14.00;1.00;;;;;;;6.81;100.00;98963.00;5245092;28;20028;-74
2024/02/23 00:03:30;;;;;;;3.90;0.88;;;;;;;6.80;100.00;98964.03;5246981;28;20115;-74
2024/02/23 00:06:00;;;;;;;8.27;1.05;;;;;;;6.85;100.00;98976.78;5253579;28;20385;-74
2024/02/23 00:08:31;;;;;;;7.53;1.05;;;;;;;6.83;100.00;98970.81;5249583;28;20098;-74
2024/02/23 00:11:01;;;;;;;1.67;0.70;;;;;;;6.70;100.00;98979.47;5249964;28;20474;-74
2024/02/23 00:13:32;;;;;;;3.78;0.80;;;;;;;6.74;100.00;98984.25;5246896;28;20464;-74
2024/02/23 00:16:02;;;;;;;10.23;0.90;;;;;;;6.68;100.00;98989.53;5248952;28;20024;-73
2024/02/23 00:18:33;;;;;;;6.53;1.42;;;;;;;6.66;100.00;98992.34;5249033;28;20781;-74
2024/02/23 00:21:04;;;;;;;2.50;0.80;;;;;;;6.90;100.00;98995.72;5246763;28;20031;-74
2024/02/23 00:23:34;;;;;;;3.10;0.90;;;;;;;6.71;100.00;98989.13;5248064;28;20098;-74
2024/02/23 00:26:05;;;;;;;3.83;1.02;;;;;;;6.83;100.00;99011.63;5245533;28;20028;-74
2024/02/23 00:28:35;;;;;;;6.03;1.20;;;;;;;6.80;100.00;98997.84;5248387;28;20032;-74
2024/02/23 00:31:06;;;;;;;3.53;0.90;;;;;;;6.67;100.00;99009.97;5247466;28;20032;-74
2024/02/23 00:33:37;;;;;;;6.03;1.48;;;;;;;6.66;100.00;99007.50;5244224;28;20021;-74
2024/02/23 00:36:08;;;;;;;5.43;1.02;;;;;;;6.58;100.00;99011.13;5248472;28;20039;-74
2024/02/23 00:38:38;;;;;;;7.43;0.82;;;;;;;6.69;100.00;99010.63;5245598;28;20024;-74
2024/02/23 00:41:09;;;;;;;6.82;1.20;;;;;;;6.78;100.00;99015.84;5243176;28;20022;-73
2024/02/23 00:43:41;;;;;;;3.45;1.23;;;;;;;6.82;100.00;99022.47;5243751;28;20103;-73
2024/02/23 00:46:11;;;;;;;2.88;0.60;;;;;;;6.73;100.00;99025.25;5244988;28;20107;-74
2024/02/23 00:48:42;;;;;;;9.60;1.02;;;;;;;6.58;100.00;99016.44;5244795;28;20104;-74
2024/02/23 00:51:12;;;;;;;5.18;1.05;;;;;;;6.74;100.00;99042.88;5249635;28;20155;-73
2024/02/23 00:53:43;;;;;;;2.67;0.65;;;;;;;6.60;100.00;99035.72;5243874;28;20107;-73
2024/02/23 00:56:13;;;;;;;5.38;1.60;;;;;;;6.70;100.00;99048.78;5249696;28;20020;-72
2024/02/23 00:58:44;;;;;;;3.83;0.70;;;;;;;6.69;100.00;99045.28;5244572;28;20466;-74
2024/02/23 01:01:14;;;;;;;5.15;0.90;;;;;;;6.71;100.00;99045.09;5244582;28;20763;-74
2024/02/23 01:03:45;;;;;;;5.85;0.85;;;;;;;6.65;100.00;99044.00;5242667;28;21543;-74
2024/02/23 01:06:16;;;;;;;4.03;0.75;;;;;;;6.70;100.00;99056.75;5248694;28;20491;-73
2024/02/23 01:08:47;;;;;;;2.63;0.45;;;;;;;6.72;100.00;99057.41;5244045;28;20024;-73
2024/02/23 01:11:17;;;;;;;6.57;0.88;;;;;;;6.68;100.00;99062.28;5244485;28;20101;-74
2024/02/23 01:13:48;;;;;;;3.72;0.82;;;;;;;6.67;100.00;99068.59;5242069;28;20542;-74
2024/02/23 01:16:18;;;;;;;7.80;0.77;;;;;;;6.50;100.00;99061.81;5248525;28;20033;-74
2024/02/23 01:18:49;;;;;;;7.93;1.13;;;;;;;6.67;100.00;99073.94;5243385;28;20017;-74
2024/02/23 01:21:19;;;;;;;7.78;1.33;;;;;;;6.64;100.00;99076.16;5237992;28;20056;-73
2024/02/23 01:23:50;;;;;;;5.65;0.90;;;;;;;6.50;100.00;99075.13;5240349;28;20355;-74
2024/02/23 01:26:20;;;;;;;3.90;0.75;;;;;;;6.52;100.00;99080.28;5241326;28;20033;-74
2024/02/23 01:28:51;;;;;;;3.90;0.85;;;;;;;6.47;100.00;99076.31;5244332;28;20020;-74
2024/02/23 01:31:21;;;;;;;6.25;1.10;;;;;;;6.37;100.00;99073.09;5244278;28;20035;-74
2024/02/23 01:33:51;;;;;;;11.18;2.05;;;;;;;6.33;100.00;99060.34;5241306;28;20025;-73
2024/02/23 01:36:22;;;;;;;7.80;1.05;;;;;;;6.34;100.00;99062.00;5243801;28;20099;-73
2024/02/23 01:38:52;;;;;;;5.88;0.98;;;;;;;6.40;100.00;99069.25;5251317;28;20028;-73
2024/02/23 01:41:23;;;;;;;3.67;1.00;;;;;;;6.45;100.00;99053.56;5243837;28;20025;-73
2024/02/23 01:43:54;;;;;;;7.60;1.23;;;;;;;6.53;100.00;99066.78;5243201;28;20385;-73
2024/02/23 01:46:24;;;;;;;31.20;3.10;;;;;;;6.43;100.00;99077.72;5243007;28;20100;-74
2024/02/23 01:48:55;;;;;;;7.45;1.00;;;;;;;6.32;100.00;99064.00;5247768;28;20024;-73
2024/02/23 01:51:25;;;;;;;2.92;0.70;;;;;;;6.24;100.00;99072.91;5247235;28;20047;-73
2024/02/23 01:53:56;;;;;;;4.68;0.88;;;;;;;6.34;100.00;99070.00;5249830;28;20031;-73
2024/02/23 01:56:27;;;;;;;5.45;1.20;;;;;;;6.24;100.00;99064.94;5249127;28;20070;-73
2024/02/23 01:58:58;;;;;;;4.72;1.13;;;;;;;6.38;100.00;99057.97;5248358;28;20013;-73
2024/02/23 02:01:31;;;;;;;7.97;1.45;;;;;;;6.32;100.00;99056.84;5248353;28;20085;-73
2024/02/23 02:04:01;;;;;;;3.75;0.77;;;;;;;6.44;100.00;99049.25;5248773;28;20024;-74
2024/02/23 02:06:46;;;;;;;2.92;0.90;;;;;;;6.33;100.00;99066.50;5265749;28;20381;-73
2024/02/23 02:09:17;;;;;;;7.70;1.00;;;;;;;6.32;100.00;99058.69;5249627;28;20031;-72
2024/02/23 02:11:48;;;;;;;4.88;0.70;;;;;;;6.30;100.00;99056.22;5253973;28;20032;-73
2024/02/23 02:14:19;;;;;;;4.18;0.50;;;;;;;6.34;100.00;99062.00;5249793;28;20466;-73
2024/02/23 02:16:50;;;;;;;1.90;0.60;;;;;;;6.25;100.00;99071.91;5248105;28;20040;-73
2024/02/23 02:19:20;;;;;;;3.42;0.90;;;;;;;6.38;100.00;99068.63;5252797;28;20024;-73
2024/02/23 02:21:51;;;;;;;5.00;1.05;;;;;;;6.36;100.00;99075.94;5251689;28;20481;-73
2024/02/23 02:24:22;;;;;;;4.07;1.00;;;;;;;6.24;100.00;99067.59;5249062;28;20103;-73
2024/02/23 02:26:52;;;;;;;7.18;1.20;;;;;;;6.25;100.00;99071.91;5252950;28;20016;-73
2024/02/23 02:29:23;;;;;;;6.70;0.90;;;;;;;6.30;100.00;99069.53;5256451;28;20027;-73
2024/02/23 02:31:53;;;;;;;3.47;0.90;;;;;;;6.28;100.00;99073.38;5252579;28;20777;-73
2024/02/23 02:34:24;;;;;;;6.85;1.10;;;;;;;6.11;100.00;99068.19;5254709;28;20040;-73
2024/02/23 02:36:55;;;;;;;4.45;1.05;;;;;;;6.08;100.00;99073.09;5259978;28;20035;-73
2024/02/23 02:39:25;;;;;;;4.55;1.20;;;;;;;6.19;100.00;99075.31;5254094;28;20036;-73
2024/02/23 02:41:57;;;;;;;6.97;1.52;;;;;;;6.16;100.00;99067.66;5253454;28;20028;-73
2024/02/23 02:44:30;;;;;;;6.20;1.17;;;;;;;6.22;100.00;99067.78;5255288;28;20024;-73
2024/02/23 02:47:00;;;;;;;7.93;1.85;;;;;;;6.27;100.00;99074.38;5250779;28;20035;-73
2024/02/23 02:49:32;;;;;;;5.47;1.05;;;;;;;6.17;100.00;99074.63;5254985;28;20031;-73
2024/02/23 02:52:02;;;;;;;8.63;1.50;;;;;;;6.22;100.00;99072.25;5251345;28;20386;-73
2024/02/23 02:54:33;;;;;;;9.70;1.00;;;;;;;6.19;100.00;99073.47;5250994;28;20035;-73
2024/02/23 02:57:03;;;;;;;9.88;1.98;;;;;;;6.28;100.00;99074.22;5249575;28;20538;-73
2024/02/23 02:59:35;;;;;;;5.07;1.20;;;;;;;6.33;100.00;99079.81;5255020;28;20024;-73
2024/02/23 03:02:06;;;;;;;6.15;1.20;;;;;;;6.22;100.00;99069.59;5251387;28;20039;-73
2024/02/23 03:04:36;;;;;;;3.60;1.40;;;;;;;6.25;100.00;99071.91;5255311;28;20028;-73
2024/02/23 03:07:07;;;;;;;8.48;1.50;;;;;;;6.37;100.00;99082.94;5249348;28;20536;-73
2024/02/23 03:09:37;;;;;;;8.63;1.35;;;;;;;6.43;100.00;99077.72;5255602;28;20038;-73
2024/02/23 03:12:08;;;;;;;12.85;1.70;;;;;;;6.45;100.00;99086.34;5254004;28;20122;-73
2024/02/23 03:14:40;;;;;;;4.10;1.63;;;;;;;6.41;100.00;99084.22;5255617;28;20035;-73
2024/02/23 03:17:10;;;;;;;14.15;1.88;;;;;;;6.55;100.00;99074.59;5252944;28;20482;-73
2024/02/23 03:19:43;;;;;;;20.85;2.45;;;;;;;6.45;100.00;99074.88;5255133;28;20363;-73
2024/02/23 03:22:13;;;;;;;6.88;1.65;;;;;;;6.65;100.00;99065.31;5251471;28;20031;-73
2024/02/23 03:24:46;;;;;;;9.60;1.50;;;;;;;6.55;100.00;99064.75;5252896;28;20055;-73
2024/02/23 03:27:17;;;;;;;7.28;1.20;;;;;;;6.48;100.00;99063.84;5253517;28;20020;-73
2024/02/23 03:29:47;;;;;;;7.35;1.73;;;;;;;6.58;100.00;99060.91;5251343;28;20095;-73
2024/02/23 03:32:22;;;;;;;8.68;1.60;;;;;;;6.72;100.00;99066.22;5251054;28;20039;-73
2024/02/23 03:35:03;;;;;;;8.52;1.70;;;;;;;6.56;100.00;99057.59;5250332;28;20489;-73
2024/02/23 03:37:34;;;;;;;6.38;2.28;;;;;;;6.51;100.00;99068.78;5253486;28;20024;-73
2024/02/23 03:40:06;;;;;;;6.45;1.58;;;;;;;6.67;100.00;99063.28;5248665;28;20077;-73
2024/02/23 03:42:36;;;;;;;10.73;2.15;;;;;;;6.74;100.00;99060.72;5253796;28;20025;-73
2024/02/23 03:45:07;;;;;;;11.52;1.70;;;;;;;6.67;100.00;99062.44;5252661;28;20040;-73
2024/02/23 03:47:38;;;;;;;6.43;1.98;;;;;;;6.57;100.00;99062.72;5249979;28;20028;-73
2024/02/23 03:50:09;;;;;;;7.63;1.55;;;;;;;6.64;100.00;99054.84;5248836;28;20056;-73
2024/02/23 03:52:40;;;;;;;10.27;1.67;;;;;;;6.54;100.00;99060.44;5251989;28;20067;-73
2024/02/23 03:55:10;;;;;;;6.65;1.70;;;;;;;6.65;100.00;99069.81;5251970;28;20486;-74
2024/02/23 03:57:41;;;;;;;5.25;1.52;;;;;;;6.66;100.00;99066.13;5251987;28;20032;-73
2024/02/23 04:00:12;;;;;;;8.27;2.97;;;;;;;6.67;100.00;99073.13;5251568;28;20531;-73
2024/02/23 04:02:42;;;;;;;8.30;1.65;;;;;;;6.65;100.00;99065.31;5250964;28;20031;-73
2024/02/23 04:05:13;;;;;;;8.88;2.20;;;;;;;6.72;100.00;99068.88;5250580;28;20044;-74
2024/02/23 04:07:43;;;;;;;6.95;1.60;;;;;;;6.85;100.00;99072.75;5246352;28;20119;-73
2024/02/23 04:10:16;;;;;;;9.45;2.17;;;;;;;6.81;100.00;99068.78;5252009;28;20122;-73
2024/02/23 04:12:47;;;;;;;7.03;2.08;;;;;;;6.93;100.00;99062.00;5255446;28;20063;-73
2024/02/23 04:15:17;;;;;;;13.57;4.00;;;;;;;6.84;100.00;99068.44;5249188;28;20048;-73
2024/02/23 04:17:48;;;;;;;7.65;1.73;;;;;;;6.78;100.00;99053.16;5257344;28;20018;-73
2024/02/23 04:20:19;;;;;;;4.90;1.83;;;;;;;6.95;100.00;99068.78;5249267;28;20024;-73
2024/02/23 04:22:49;;;;;;;12.13;2.42;;;;;;;6.96;100.00;99062.44;5248127;28;20035;-73
2024/02/23 04:25:20;;;;;;;5.55;1.70;;;;;;;6.91;100.00;99064.81;5252392;28;20119;-73
2024/02/23 04:27:50;;;;;;;7.28;1.42;;;;;;;6.87;100.00;99068.88;5251151;28;20093;-74
2024/02/23 04:30:21;;;;;;;16.33;1.92;;;;;;;6.88;100.00;99054.56;5249207;28;20375;-73
2024/02/23 04:32:51;;;;;;;11.00;2.40;;;;;;;7.08;100.00;99060.13;5250073;28;20119;-73
2024/02/23 04:35:21;;;;;;;11.75;3.42;;;;;;;6.92;100.00;99050.47;5260053;28;20393;-73
2024/02/23 04:37:52;;;;;;;13.32;1.75;;;;;;;6.98;100.00;99051.59;5248681;28;20020;-73
2024/02/23 04:40:23;;;;;;;5.88;1.60;;;;;;;7.06;100.00;99051.47;5253084;28;20724;-73
2024/02/23 04:42:53;;;;;;;10.50;2.20;;;;;;;6.94;100.00;99053.81;5245783;28;20024;-73
2024/02/23 04:45:23;;;;;;;9.20;2.13;;;;;;;7.15;100.00;99047.69;5249579;28;20081;-73
2024/02/23 04:47:54;;;;;;;10.35;2.55;;;;;;;7.05;100.00;99046.34;5251038;28;20074;-73
2024/02/23 04:50:25;;;;;;;9.38;1.90;;;;;;;6.99;100.00;99046.06;5249367;28;20024;-73
2024/02/23 04:52:55;;;;;;;8.75;2.17;;;;;;;7.20;100.00;99052.47;5248214;28;20067;-73
2024/02/23 04:55:26;;;;;;;10.07;2.15;;;;;;;7.15;100.00;99049.53;5249875;28;20478;-73
2024/02/23 04:57:56;;;;;;;11.45;2.53;;;;;;;7.02;100.00;99055.53;5245678;28;20016;-73
2024/02/23 05:00:32;;;;;;;7.93;1.80;;;;;;;7.00;100.00;99063.72;5247566;28;20028;-73
2024/02/23 05:03:03;;;;;;;19.38;2.60;;;;;;;7.04;100.00;99061.50;5247675;28;20072;-73
2024/02/23 05:05:35;;;;;;;8.27;1.90;;;;;;;7.11;100.00;99069.56;5248248;28;20028;-73
2024/02/23 05:08:06;;;;;;;7.63;2.25;;;;;;;6.98;100.00;99062.25;5244767;28;20468;-73
2024/02/23 05:10:36;;;;;;;11.05;1.63;;;;;;;7.05;100.00;99073.00;5252550;28;20024;-73
2024/02/23 05:13:06;;;;;;;5.57;1.48;;;;;;;7.10;100.00;99070.59;5248422;28;20101;-73
2024/02/23 05:15:37;;;;;;;8.05;1.85;;;;;;;7.03;100.00;99067.84;5249801;28;20027;-73
2024/02/23 05:18:07;;;;;;;10.90;1.80;;;;;;;7.08;100.00;99078.78;5247282;28;20082;-73
2024/02/23 05:20:38;;;;;;;10.55;2.15;;;;;;;6.94;100.00;99056.47;5246518;28;20153;-73
2024/02/23 05:23:08;;;;;;;12.95;2.50;;;;;;;7.08;100.00;99065.47;5246361;28;20424;-73
2024/02/23 05:25:39;;;;;;;7.72;2.03;;;;;;;7.15;100.00;99068.19;5249700;28;20063;-73
2024/02/23 05:28:09;;;;;;;5.25;2.17;;;;;;;7.19;100.00;99072.97;5250803;28;20545;-73
2024/02/23 05:30:40;;;;;;;13.82;1.80;;;;;;;7.11;100.00;99065.06;5249607;28;20111;-73
2024/02/23 05:33:10;;;;;;;12.60;3.55;;;;;;;6.98;100.00;99060.41;5248060;28;20089;-73
2024/02/23 05:35:41;;;;;;;12.63;1.73;;;;;;;7.08;100.00;99043.28;5247474;28;20099;-73
2024/02/23 05:38:11;;;;;;;8.23;1.45;;;;;;;7.10;100.00;99057.25;5250762;28;20082;-73
2024/02/23 05:40:42;;;;;;;12.88;1.88;;;;;;;7.18;100.00;99038.50;5250145;28;20480;-73
2024/02/23 05:43:13;;;;;;;12.20;1.48;;;;;;;7.21;100.00;99051.44;5246081;28;20016;-73
2024/02/23 05:45:45;;;;;;;13.98;2.05;;;;;;;7.17;100.00;99044.81;5249691;28;20470;-73
2024/02/23 05:48:15;;;;;;;5.72;1.70;;;;;;;7.17;100.00;99037.66;5251377;28;20039;-73
2024/02/23 05:50:46;;;;;;;7.38;1.00;;;;;;;7.18;100.00;99041.97;5249176;28;20029;-73
2024/02/23 05:53:16;;;;;;;15.82;1.52;;;;;;;7.01;100.00;99038.69;5245684;28;20028;-73
2024/02/23 05:55:47;;;;;;;8.00;1.77;;;;;;;7.17;100.00;99042.97;5247339;28;20124;-73
2024/02/23 05:58:17;;;;;;;8.25;1.30;;;;;;;7.26;100.00;99041.03;5251724;28;20074;-73
2024/02/23 06:00:48;;;;;;;6.00;1.13;;;;;;;7.12;100.00;99057.88;5254247;28;20107;-73
2024/02/23 06:03:18;;;;;;;7.32;1.27;;;;;;;7.17;100.00;99045.66;5249355;28;20073;-73
2024/02/23 06:05:48;;;;;;;6.75;1.33;;;;;;;7.16;100.00;99051.19;5255099;28;20107;-73
2024/02/23 06:08:19;;;;;;;8.40;1.40;;;;;;;7.01;100.00;99053.88;5252515;28;20020;-73
2024/02/23 06:10:49;;;;;;;6.45;1.20;;;;;;;7.14;100.00;99054.03;5250000;28;20485;-73
2024/02/23 06:13:20;;;;;;;6.68;1.20;;;;;;;7.15;100.00;99061.03;5252285;28;20067;-73
2024/02/23 06:15:50;;;;;;;9.80;2.45;;;;;;;7.30;100.00;99050.31;5253488;28;20024;-73
2024/02/23 06:18:21;;;;;;;5.63;1.15;;;;;;;7.11;100.00;99043.72;5250974;28;20025;-73
2024/02/23 06:20:51;;;;;;;10.85;1.33;;;;;;;6.99;100.00;99043.41;5253178;28;20090;-73
2024/02/23 06:23:22;;;;;;;5.38;1.20;;;;;;;7.11;100.00;99034.91;5249849;28;20105;-73
2024/02/23 06:25:52;;;;;;;7.15;1.55;;;;;;;7.08;100.00;99037.94;5251758;28;20046;-73
2024/02/23 06:28:23;;;;;;;5.90;1.15;;;;;;;7.02;100.00;99031.53;5253917;28;20096;-73
2024/02/23 06:30:53;;;;;;;9.45;1.20;;;;;;;7.02;100.00;99044.84;5243368;28;20028;-73
2024/02/23 06:33:24;;;;;;;4.13;1.10;;;;;;;7.15;100.00;99039.69;5249324;28;20020;-73
2024/02/23 06:35:55;;;;;;;7.07;1.50;;;;;;;7.08;100.00;99037.94;5252427;28;20070;-73
2024/02/23 06:38:25;;;;;;;9.93;2.47;;;;;;;7.03;100.00;99024.34;5254431;28;20025;-74
2024/02/23 06:40:56;;;;;;;8.45;1.13;;;;;;;7.12;100.00;99036.56;5250787;28;20099;-73
2024/02/23 06:43:26;;;;;;;11.05;1.50;;;;;;;7.15;100.00;99036.19;5249938;28;20036;-73
2024/02/23 06:45:57;;;;;;;8.98;1.50;;;;;;;7.24;100.00;99045.75;5250153;28;20131;-74
2024/02/23 06:48:27;;;;;;;6.32;1.20;;;;;;;7.18;100.00;99031.31;5256235;28;20040;-74
2024/02/23 06:50:58;;;;;;;4.60;1.20;;;;;;;7.25;100.00;99036.72;5253519;28;20031;-74
2024/02/23 06:53:28;;;;;;;9.13;1.80;;;;;;;7.17;100.00;99045.66;5251068;28;20107;-74
2024/02/23 06:55:59;;;;;;;7.80;2.03;;;;;;;7.17;100.00;99039.50;5245850;28;20019;-74
2024/02/23 06:58:29;;;;;;;14.45;2.70;;;;;;;7.04;100.00;99042.03;5250920;28;20414;-74
2024/02/23 07:01:00;;;;;;;13.85;2.72;;;;;;;7.33;100.00;99049.94;5251907;28;20550;-74
2024/02/23 07:03:31;;;;;;;11.48;2.17;;;;;;;7.19;100.00;99040.97;5250915;28;20797;-74
2024/02/23 07:06:03;;;;;;;11.00;2.25;;;;;;;7.22;100.00;99031.75;5251488;28;20020;-74
2024/02/23 07:08:33;;;;;;;8.80;1.20;;;;;;;7.27;100.00;99042.69;5250633;28;20536;-73
2024/02/23 07:11:03;;;;;;;17.52;3.80;;;;;;;7.26;100.00;99033.03;5252333;28;20165;-74
2024/02/23 07:13:34;;;;;;;11.20;1.33;;;;;;;7.47;100.00;99048.22;5250343;28;20489;-73
2024/02/23 07:16:05;;;;;;;6.03;1.10;;;;;;;7.34;100.00;99045.44;5254198;28;20166;-73
2024/02/23 07:18:35;;;;;;;8.93;1.30;;;;;;;7.34;100.00;99048.94;5271611;28;20020;-74
2024/02/23 07:21:06;;;;;;;8.20;1.58;;;;;;;7.52;100.00;99046.63;5254712;28;20482;-74
2024/02/23 07:23:36;;;;;;;9.63;2.45;;;;;;;7.27;100.00;99027.50;5254639;28;20490;-74
2024/02/23 07:26:07;;;;;;;8.30;1.05;;;;;;;7.37;100.00;99045.84;5254353;28;20031;-74
2024/02/23 07:28:37;;;;;;;12.60;1.40;;;;;;;7.42;100.00;99040.78;5255744;28;20020;-74
2024/02/23 07:31:09;;;;;;;12.55;1.45;;;;;;;7.27;100.00;99040.00;5253594;28;20035;-74
2024/02/23 07:33:40;;;;;;;15.00;1.95;;;;;;;7.54;100.00;99038.44;5255860;28;20031;-73
2024/02/23 07:36:15;;;;;;;7.68;1.60;;;;;;;7.48;100.00;99040.03;5252097;28;20032;-74
2024/02/23 07:38:45;;;;;;;5.30;1.23;;;;;;;7.30;100.00;99026.31;5250579;28;20505;-74
2024/02/23 07:41:17;;;;;;;16.50;1.58;;;;;;;7.38;100.00;99028.88;5251884;28;20263;-74
2024/02/23 07:43:49;;;;;;;6.88;2.65;;;;;;;7.40;100.00;99037.50;5252338;28;20035;-73
2024/02/23 07:46:20;;;;;;;9.82;1.35;;;;;;;7.33;100.00;99038.41;5254699;28;20036;-74
2024/02/23 07:48:50;;;;;;;8.50;1.33;;;;;;;7.44;100.00;99027.28;5255173;28;20747;-74
2024/02/23 07:51:21;;;;;;;6.20;1.30;;;;;;;7.45;100.00;99028.91;5252821;28;20108;-74
2024/02/23 07:53:51;;;;;;;7.07;1.40;;;;;;;7.50;100.00;99027.31;5253742;28;20027;-74
2024/02/23 07:56:22;;;;;;;12.13;1.92;;;;;;;7.65;100.00;99021.91;5251270;28;20116;-74
2024/02/23 07:58:54;;;;;;;8.65;1.88;;;;;;;7.66;100.00;99028.09;5254408;28;20140;-74
2024/02/23 08:01:24;;;;;;;9.70;1.25;;;;;;;7.77;100.00;99044.41;5240798;28;20029;-74
2024/02/23 08:03:57;;;;;;;9.20;1.75;;;;;;;7.78;100.00;99029.19;5242538;28;20371;-74
2024/02/23 08:06:27;;;;;;;10.65;1.52;;;;;;;7.84;100.00;99027.63;5252330;28;20027;-74
2024/02/23 08:08:58;;;;;;;10.77;1.83;;;;;;;7.94;100.00;99009.44;5249650;28;20028;-74
2024/02/23 08:11:29;;;;;;;6.25;1.65;;;;;;;7.94;100.00;99023.59;5266217;28;20127;-74
2024/02/23 08:13:59;;;;;;;9.88;1.50;;;;;;;7.84;100.00;99012.44;5252301;28;20032;-74
2024/02/23 08:16:30;;;;;;;6.82;1.20;;;;;;;7.95;100.00;99033.25;5252829;28;20478;-74
2024/02/23 08:19:00;;;;;;;10.70;1.77;;;;;;;7.85;100.00;99022.09;5250990;28;20035;-74
2024/02/23 08:21:31;;;;;;;9.93;1.80;;;;;;;7.94;100.00;99028.13;5250664;28;20109;-74
2024/02/23 08:24:02;;;;;;;9.93;1.60;;;;;;;8.09;100.00;99022.69;5246966;28;20119;-74
2024/02/23 08:26:33;;;;;;;12.35;1.60;;;;;;;8.03;100.00;99026.94;5250691;28;20665;-74
2024/02/23 08:29:04;;;;;;;11.77;1.30;;;;;;;8.07;100.00;99027.38;5252143;28;20721;-74
2024/02/23 08:31:35;;;;;;;10.35;1.65;;;;;;;8.00;100.00;99032.69;5252259;28;20023;-74
2024/02/23 08:34:06;;;;;;;7.75;1.20;;;;;;;7.99;100.00;99034.53;5247288;28;20114;-74
2024/02/23 08:36:37;;;;;;;8.32;1.33;;;;;;;8.03;100.00;99032.28;5249826;28;20392;-73
2024/02/23 08:39:08;;;;;;;7.70;2.03;;;;;;;8.04;100.00;99031.28;5247670;28;20025;-74
2024/02/23 08:41:39;;;;;;;8.85;1.60;;;;;;;7.89;100.00;99030.56;5253773;28;20052;-74
2024/02/23 08:44:09;;;;;;;5.93;1.05;;;;;;;7.93;100.00;99048.66;5245888;28;20113;-74
2024/02/23 08:46:40;;;;;;;10.73;1.92;;;;;;;7.64;100.00;99040.81;5249788;28;20477;-74
2024/02/23 08:49:11;;;;;;;6.82;1.55;;;;;;;7.62;100.00;99051.66;5246558;28;20541;-74
2024/02/23 08:51:41;;;;;;;18.05;1.80;;;;;;;7.63;100.00;99057.81;5251975;28;20107;-74
2024/02/23 08:54:11;;;;;;;12.95;2.88;;;;;;;7.37;100.00;99063.72;5249898;28;20478;-74
2024/02/23 08:56:42;;;;;;;10.30;1.67;;;;;;;7.43;100.00;99062.94;5250158;28;20481;-75
2024/02/23 08:59:13;;;;;;;6.93;1.15;;;;;;;7.19;100.00;99050.81;5249179;28;20024;-75
2024/02/23 09:01:44;;;;;;;5.20;1.13;;;;;;;7.22;100.00;99053.09;5248905;28;20552;-75
2024/02/23 09:04:15;;;;;;;10.05;1.40;;;;;;;7.21;100.00;99059.44;5248324;28;20035;-75
2024/02/23 09:06:45;;;;;;;8.05;1.13;;;;;;;7.29;100.00;99064.66;5250910;28;20028;-75
2024/02/23 09:09:16;;;;;;;8.75;1.42;;;;;;;7.24;100.00;99056.41;5251229;28;20028;-75
2024/02/23 09:11:47;;;;;;;8.75;1.30;;;;;;;7.24;100.00;99051.91;5252110;28;20031;-75
2024/02/23 09:14:17;;;;;;;9.15;1.67;;;;;;;6.96;100.00;99046.44;5247211;28;20063;-75
2024/02/23 09:16:50;;;;;;;15.18;1.30;;;;;;;7.13;100.00;99041.72;5251705;28;20035;-75
2024/02/23 09:19:20;;;;;;;5.03;1.40;;;;;;;7.17;100.00;99055.50;5247823;28;20063;-74
2024/02/23 09:21:51;;;;;;;8.20;1.40;;;;;;;7.25;100.00;99048.22;5247048;28;20111;-75
2024/02/23 09:24:21;;;;;;;5.80;1.08;;;;;;;7.08;100.00;99062.78;5266447;28;20040;-75
2024/02/23 09:26:52;;;;;;;9.95;1.25;;;;;;;7.47;100.00;99053.56;5251240;28;20036;-74
2024/02/23 09:29:23;;;;;;;8.50;1.73;;;;;;;7.40;100.00;99052.66;5252084;28;20120;-74
2024/02/23 09:31:53;;;;;;;14.13;1.63;;;;;;;7.50;100.00;99062.00;5249821;28;20110;-75
2024/02/23 09:34:24;;;;;;;14.40;1.40;;;;;;;7.48;100.00;99065.88;5249875;28;20082;-75
2024/02/23 09:36:55;;;;;;;9.18;1.65;;;;;;;7.49;100.00;99062.22;5248743;28;20035;-74
2024/02/23 09:39:29;;;;;;;7.03;1.52;;;;;;;7.62;100.00;99061.50;5244744;28;20024;-75
2024/02/23 09:42:01;;;;;;;8.40;1.63;;;;;;;7.90;100.00;99058.91;5247308;28;20024;-75
2024/02/23 09:44:34;;;;;;;7.95;1.08;;;;;;;8.10;100.00;99069.75;5248227;28;20051;-74
2024/02/23 09:47:09;;;;;;;4.10;1.38;;;;;;;7.90;100.00;99054.38;5248806;28;20107;-74
2024/02/23 09:49:40;;;;;;;6.20;1.50;;;;;;;8.20;100.00;99076.41;5253291;28;20031;-74
2024/02/23 09:52:11;;;;;;;5.65;1.50;;;;;;;8.10;100.00;99075.91;5247470;28;20092;-75
2024/02/23 09:54:42;;;;;;;8.43;1.30;;;;;;;8.11;100.00;99071.38;5254281;28;20166;-74
2024/02/23 09:57:14;;;;;;;4.25;1.13;;;;;;;8.18;100.00;99083.78;5246800;28;20028;-74
2024/02/23 09:59:46;;;;;;;9.43;1.42;;;;;;;8.43;100.00;99083.34;5252931;28;20028;-75
2024/02/23 10:02:17;;;;;;;15.68;1.48;;;;;;;8.54;100.00;99081.00;5242915;28;20029;-74
2024/02/23 10:04:50;;;;;;;17.50;2.22;;;;;;;8.66;100.00;99083.94;5250760;28;20541;-74
2024/02/23 10:07:20;;;;;;;16.83;2.63;;;;;;;8.63;100.00;99086.16;5250310;28;20020;-74
2024/02/23 10:09:50;;;;;;;7.82;1.48;;;;;;;8.56;100.00;99092.28;5249039;28;20688;-74
2024/02/23 10:12:21;;;;;;;11.20;3.05;;;;;;;8.64;100.00;99079.81;5250024;28;20033;-75
2024/02/23 10:14:53;;;;;;;14.27;1.30;;;;;;;8.71;100.00;99094.03;5252181;28;20030;-74
2024/02/23 10:17:23;;;;;;;10.85;1.20;;;;;;;8.79;100.00;99076.00;5249632;28;20043;-75
2024/02/23 10:19:54;;;;;;;6.47;1.50;;;;;;;8.87;100.00;99087.53;5251885;28;20032;-74
2024/02/23 10:22:27;;;;;;;9.00;1.77;;;;;;;8.89;100.00;99086.31;5248362;28;20032;-74
2024/02/23 10:24:59;;;;;;;10.18;1.73;;;;;;;9.11;100.00;99094.25;5249107;28;20032;-74
2024/02/23 10:27:29;;;;;;;7.72;2.83;;;;;;;9.61;100.00;99084.94;5252114;28;20037;-75
2024/02/23 10:30:00;;;;;;;10.45;1.70;;;;;;;9.45;100.00;99098.69;5247414;28;20060;-75
2024/02/23 10:32:30;;;;;;;8.68;1.83;;;;;;;9.35;100.00;99093.72;5253286;28;20017;-74
2024/02/23 10:35:04;;;;;;;6.57;1.70;;;;;;;9.08;100.00;99092.78;5249149;28;20387;-74
2024/02/23 10:37:34;;;;;;;7.68;2.00;;;;;;;9.11;100.00;99084.34;5251799;28;20039;-74
2024/02/23 10:40:06;;;;;;;5.60;1.45;;;;;;;8.99;100.00;99094.00;5248918;28;20016;-74
2024/02/23 10:42:39;;;;;;;5.80;1.80;;;;;;;8.41;100.00;99106.78;5262942;28;20514;-74
2024/02/23 10:45:09;;;;;;;10.95;1.95;;;;;;;8.41;100.00;99102.25;5249192;28;20029;-74
2024/02/23 10:47:41;;;;;;;10.88;1.90;;;;;;;8.57;100.00;99115.31;5244287;28;20036;-74
2024/02/23 10:50:14;;;;;;;9.25;1.70;;;;;;;8.59;100.00;99107.13;5253457;28;20017;-74
2024/02/23 10:52:45;;;;;;;7.55;1.98;;;;;;;8.70;100.00;99114.59;5256267;28;20028;-74
2024/02/23 10:55:16;;;;;;;6.82;1.48;;;;;;;8.62;100.00;99105.91;5249884;28;20024;-74
2024/02/23 10:57:51;;;;;;;5.95;1.55;;;;;;;8.74;100.00;99118.53;5254777;28;20038;-74
2024/02/23 11:00:24;;;;;;;8.25;2.08;;;;;;;8.81;100.00;99118.56;5253776;28;20047;-74
2024/02/23 11:02:55;;;;;;;6.32;1.45;;;;;;;8.76;100.00;99112.97;5253406;28;20024;-74
2024/02/23 11:05:28;;;;;;;10.65;1.70;;;;;;;8.91;100.00;99102.16;5251964;28;20119;-74
2024/02/23 11:08:00;;;;;;;9.27;1.50;;;;;;;8.70;100.00;99119.94;5250569;28;20031;-74
2024/02/23 11:10:30;;;;;;;7.47;1.88;;;;;;;8.85;100.00;99119.00;5268224;28;20029;-74
2024/02/23 11:13:01;;;;;;;5.15;1.40;;;;;;;9.01;100.00;99116.81;5254304;28;20024;-74
2024/02/23 11:15:34;;;;;;;9.00;2.05;;;;;;;9.07;100.00;99105.31;5255987;28;20498;-74
2024/02/23 11:18:20;;;;;;;8.15;1.77;;;;;;;9.20;100.00;99109.91;5250347;28;20158;-74
2024/02/23 11:21:00;;;;;;;7.18;2.05;;;;;;;9.33;100.00;99122.50;5249195;28;20023;-74
2024/02/23 11:23:45;;;;;;;8.38;1.70;;;;;;;9.29;100.00;99126.63;5252853;28;20115;-74
2024/02/23 11:26:15;;;;;;;5.45;1.40;;;;;;;9.27;100.00;99118.78;5251522;28;20032;-74
2024/02/23 11:28:53;;;;;;;7.18;1.30;;;;;;;9.31;100.00;99116.53;5254932;28;20103;-74
2024/02/23 11:31:25;;;;;;;10.45;2.13;;;;;;;9.13;100.00;99135.81;5249645;28;20085;-74
2024/02/23 11:33:57;;;;;;;7.55;1.95;;;;;;;9.20;100.00;99115.28;5250786;28;20028;-74
2024/02/23 11:36:32;;;;;;;6.43;1.58;;;;;;;9.40;100.00;99119.88;5253717;28;20020;-74
2024/02/23 11:39:02;;;;;;;7.00;1.55;;;;;;;9.43;100.00;99128.31;5259701;28;20031;-74
2024/02/23 11:41:34;;;;;;;8.38;1.98;;;;;;;9.48;100.00;99107.13;5257358;28;20016;-74
2024/02/23 11:44:07;;;;;;;8.23;1.60;;;;;;;9.49;100.00;99124.84;5255076;28;20221;-75
2024/02/23 11:46:37;;;;;;;7.85;1.40;;;;;;;9.79;100.00;99119.16;5258566;28;20028;-74
2024/02/23 11:49:08;;;;;;;5.60;1.38;;;;;;;9.50;100.00;99123.81;5257358;28;20455;-74